Halls Crossing, Utah
Current Conditions -  °F | °C
As of 1:55 AM on Sunday 26 Oct 2014 (Local Time) from KBDG Reporting Station
Clear Clear  
Wind Chill: 53°   Ceiling: Unl
Heat Index: 53°   Visibility: 10mi
Dew Point: 32°   Wind: 0mph
Humidity: 44%   Direction: NA
Pressure: 30.2"   Gusts: NA
Location:  37.6208°N, 109.479°W
Report Text: KBDG 260755Z AUTO 00000KT 10SM CLR 12/00 A3020 RMK AO1 T01190001
Loading
Personal Weather Stations






























Interactive Weather Map
Tropical Storm Tracking
New forecast layout! Learn more

10-Day Weather Forecast

Advertisements
Track Severe Weather on mobile